Weather observations for the past three days for
Rockland, Knox County Regional Airport
Imperial (Metric)
Date Time (edt) Wind (mph) Vis. (mi.) Weather Sky Cond. Temperature (ºF) Relative Humidity Wind Chill (°F) Heat Index (°F) Pressure Precipitation (in)
Air Dwpt 6 hour altimeter (in) sea level (mb) 1 hr 3 hr 6 hr
Max. Min.
06 07:56 SW 7 10.00 Partly Cloudy SCT012 55 51.1 55 52 87% 29.85 1010.9
06 06:56 SW 6 10.00 Overcast OVC010 53.1 50 89% 29.85 1010.8
06 05:56 SW 7 10.00 Mostly Cloudy BKN120 52 48.9 89% 29.84 1010.4
06 04:56 SW 10 G 17 10.00 Overcast OVC110 52 48.9 89% 29.83 1010.1
06 03:56 SW 14 G 21 10.00 Fair CLR 53.1 48.9 86% 29.81 1009.4
06 02:56 SW 14 G 21 10.00 Fair CLR 52 48 86% 29.8 1009.2
06 01:56 SW 10 G 20 10.00 Fair CLR 52 46.9 55 51.1 83% 29.81 1009.4
06 00:56 SW 14 G 20 10.00 Overcast FEW060 SCT100 OVC110 51.1 46.9 86% 29.81 1009.3
05 23:56 SW 10 G 17 10.00 Overcast OVC100 52 46.9 83% 29.81 1009.6
05 22:56 S 8 10.00 Mostly Cloudy BKN110 52 46.9 83% 29.81 1009.4
05 21:56 SW 12 10.00 Partly Cloudy SCT090 55 48 77% 29.81 1009.5
05 20:56 S 7 10.00 Fair CLR 55 46.9 74% 29.79 1008.8
05 19:56 W 17 G 36 10.00 Fair CLR 55 48 57 53.1 77% 29.77 1008.2
05 18:56 SW 17 G 25 10.00 Fair CLR 54 46.9 77% 29.71 1006.0
05 17:56 SW 17 G 23 10.00 Fair CLR 55 48 77% 0 0.0
05 16:56 SW 14 G 24 9.00 Fair CLR 55.9 48.9 77% 29.71 1006.0
05 15:56 SW 20 G 30 10.00 Fair CLR 55.9 48.9 77% 29.73 1006.7
05 14:56 SW 15 G 25 10.00 Fair CLR 55.9 48.9 77% 29.74 1007.2
05 13:56 S 14 G 23 10.00 Fair CLR 55.9 48.9 57.9 54 77% 29.76 1007.9
05 12:56 S 12 G 21 10.00 Fair CLR 57 48.9 74% 29.77 1008.2
05 11:56 SW 12 G 23 10.00 Fair CLR 55 48 77% 29.81 1009.4
05 10:56 S 14 G 23 10.00 Fair CLR 55 48.9 80% 29.8 1009.1
05 09:56 S 10 10.00 Fair CLR 55 48 77% 29.81 1009.3
05 08:56 S 12 10.00 Fair CLR 54 46.9 77% 29.81 1009.3
05 07:56 S 9 G 16 10.00 Fair CLR 53.1 46 53.1 48 77% 29.81 1009.5
05 06:56 Vrbl 7 10.00 Fair CLR 51.1 45 80% 29.81 1009.3
05 05:56 SW 7 10.00 Fair CLR 48.9 44.1 83% 46 29.8 1009.2
05 04:56 SW 6 10.00 Fair CLR 48.9 44.1 83% 47 29.8 1009.2
05 03:56 SW 10 10.00 Fair CLR 50 43 77% 46 29.8 1009.2
05 02:56 SW 13 G 18 10.00 Fair CLR 51.1 43 74% 29.79 1008.9
05 01:56 SW 16 G 26 10.00 Fair CLR 51.1 43 54 48.9 74% 29.79 1008.7
05 00:56 SW 15 10.00 Fair CLR 53.1 43 69% 29.78 1008.5
04 23:56 SW 13 G 22 10.00 Fair CLR 53.1 43 69% 29.77 1008.2
04 21:56 SW 9 10.00 Fair CLR 52 42.1 69% 29.76 1007.9
04 20:56 SW 6 10.00 Fair CLR 50 42.1 74% 48 29.76 1007.7
04 19:56 SW 7 10.00 Fair CLR 50 42.1 63 50 74% 48 29.74 1007.1
04 18:56 SW 8 10.00 A Few Clouds FEW090 53.1 42.1 66% 29.71 1006.1
04 17:56 S 9 10.00 Fair CLR 57 43 60% 29.7 1005.9
04 16:56 Vrbl 7 10.00 Fair CLR 63 44.1 50% 29.7 1005.8
04 15:56 SW 6 10.00 Overcast OVC075 60.1 42.1 52% 29.69 1005.5
04 14:56 W 10 10.00 Overcast OVC065 57 39.9 53% 29.71 1005.9
04 13:56 W 20 G 23 10.00 Mostly Cloudy BKN075 57 39 60.1 42.1 51% 29.71 1006.0
04 12:56 SW 12 G 22 10.00 Fair CLR 55.9 41 57% 29.69 1005.5
04 11:56 Calm 10.00 A Few Clouds FEW110 54 42.1 64% 0 0.0
04 10:56 SW 9 10.00 Fair CLR 55 39.9 57% 29.74 1006.9
04 09:56 SW 8 10.00 Fair CLR 53.1 37.9 57% 29.75 1007.5
04 08:56 W 10 10.00 A Few Clouds FEW070 50 35.1 57% 46 29.77 1008.2
04 07:56 W 5 10.00 Overcast OVC080 42.1 32 42.1 30.9 68% 40 29.78 1008.5
04 06:56 W 5 10.00 Overcast OVC085 39.9 30.9 70% 37 29.78 1008.4
04 05:56 W 3 10.00 Fair CLR 32 30 92% 29.77 1008.2
04 04:56 W 3 10.00 Fair CLR 32 30 92% 0 0.0
04 03:56 W 6 10.00 Fair CLR 35.1 30.9 85% 31 29.76 1007.8
04 02:56 W 6 10.00 Fair CLR 36 30.9 82% 32 29.75 1007.5
04 01:56 W 8 10.00 Fair CLR 36 30 48 36 79% 30 29.75 1007.4
04 00:56 W 13 10.00 Fair CLR 41 30 65% 34 29.74 1006.9
03 23:56 Calm 10.00 Fair CLR 42.1 30 62% 0 0.0
03 22:56 W 10 10.00 Fair CLR 42.1 28.9 60% 37 29.71 1006.0
03 21:56 W 7 10.00 Fair CLR 42.1 28.9 60% 38 29.7 1005.7
03 20:56 NW 8 10.00 Fair CLR 46 28 50% 42 29.68 1004.9
03 19:56 W 9 10.00 Partly Cloudy SCT075 48 30.9 51.1 43 52% 44 29.64 1003.7
03 18:56 Calm 10.00 Fair CLR 48.9 37.9 66% 29.61 1002.7
03 17:56 Vrbl 6 10.00 Partly Cloudy SCT032 50 39.9 68% 48 29.6 1002.2
03 16:56 NW 12 G 20 10.00 Mostly Cloudy SCT029 BKN095 48.9 39.9 71% 45 29.6 1002.3 0.02
03 15:56 N 12 G 24 10.00 Overcast BKN018 OVC025 46 41 83% 41 29.61 1002.8
03 14:56 NW 7 10.00 Light Rain OVC014 44.1 42.1 93% 41 0 0.0 0.02
03 13:56 Vrbl 6 10.00 Light Rain BKN015 OVC022 43 41 45 42.1 93% 40 29.63 1003.5 0.03 0.29
03 12:56 Calm 10.00 Light Rain BKN015 OVC025 42.1 39.9 92% 0 0.0 0.03
03 11:56 Vrbl 7 10.00 Light Rain OVC015 43 41 93% 39 29.63 1003.4 0.04
03 10:56 Vrbl 6 10.00 Light Rain OVC010 44.1 43 96% 41 29.65 1004.0 0.07 0.19
03 09:56 Vrbl 3 10.00 Light Rain OVC005 44.1 44.1 100% 29.66 1004.4 0.07
03 08:56 N 6 10.00 Light Rain OVC003 44.1 44.1 100% 41 29.68 1004.9 0.05
Date Time (edt) Wind (mph) Vis. (mi.) Weather Sky Cond. Air Dwpt Max. Min. Relative Humidity Wind Chill (°F) Heat Index (°F) altimeter (in) sea level (mb) 1 hr 3 hr 6 hr
6 hour
Temperature (ºF) Pressure Precipitation (in)